createdAt,value
2022-11-29T00:00:52.607Z,11.90
2022-11-29T00:03:19.153Z,10.93
2022-11-29T00:05:46.019Z,10.90
2022-11-29T00:08:13.710Z,9.37
2022-11-29T00:10:40.245Z,11.20
2022-11-29T00:13:06.868Z,9.63
2022-11-29T00:15:37.381Z,10.07
2022-11-29T00:18:04.715Z,10.33
2022-11-29T00:20:31.408Z,10.57
2022-11-29T00:23:00.215Z,10.17
2022-11-29T00:25:27.070Z,10.93
2022-11-29T00:27:54.008Z,10.30
2022-11-29T00:30:21.069Z,11.30
2022-11-29T00:32:47.625Z,10.97
2022-11-29T00:35:14.324Z,10.33
2022-11-29T00:37:40.782Z,11.63
2022-11-29T00:40:07.702Z,11.30
2022-11-29T00:42:34.363Z,11.90
2022-11-29T00:45:00.853Z,10.83
2022-11-29T00:47:27.364Z,11.27
2022-11-29T00:49:54.086Z,11.27
2022-11-29T00:52:20.573Z,11.30
2022-11-29T00:54:47.306Z,10.67
2022-11-29T00:57:13.954Z,10.87
2022-11-29T00:59:40.488Z,11.20
2022-11-29T01:02:07.180Z,11.03
2022-11-29T01:04:33.947Z,10.47
2022-11-29T01:07:00.423Z,11.10
2022-11-29T01:09:27.030Z,12.17
2022-11-29T01:11:53.789Z,11.67
2022-11-29T01:14:20.341Z,12.50
2022-11-29T01:16:46.972Z,11.50
2022-11-29T01:19:13.681Z,13.10
2022-11-29T01:21:41.292Z,11.53
2022-11-29T01:24:08.528Z,12.90
2022-11-29T01:26:35.182Z,11.67
2022-11-29T01:29:01.711Z,11.47
2022-11-29T01:31:30.377Z,11.13
2022-11-29T01:33:58.016Z,12.03
2022-11-29T01:36:25.092Z,10.30
2022-11-29T01:38:51.998Z,11.23
2022-11-29T01:41:20.355Z,10.80
2022-11-29T01:43:59.486Z,10.30
2022-11-29T01:46:26.583Z,9.30
2022-11-29T01:48:54.310Z,10.50
2022-11-29T01:51:21.381Z,10.77
2022-11-29T01:53:48.054Z,10.73
2022-11-29T01:56:15.193Z,10.00
2022-11-29T01:58:42.830Z,9.20
2022-11-29T02:01:09.464Z,10.13
2022-11-29T02:03:36.025Z,9.23
2022-11-29T02:06:03.049Z,9.13
2022-11-29T02:08:33.288Z,8.10
2022-11-29T02:11:05.081Z,8.43
2022-11-29T02:13:44.228Z,7.90
2022-11-29T02:16:17.031Z,8.07
2022-11-29T02:18:43.604Z,7.15
2022-11-29T02:21:12.908Z,7.30
2022-11-29T02:24:01.963Z,8.17
2022-11-29T02:26:37.716Z,8.00
2022-11-29T02:29:13.330Z,7.07
2022-11-29T02:31:59.016Z,6.17
2022-11-29T02:34:44.814Z,5.97
2022-11-29T02:37:39.692Z,6.40
2022-11-29T02:40:25.017Z,5.50
2022-11-29T02:43:14.617Z,6.07
2022-11-29T02:46:24.491Z,5.67
2022-11-29T02:48:53.591Z,5.47
2022-11-29T02:51:23.162Z,5.33
2022-11-29T02:53:49.761Z,5.07
2022-11-29T02:56:34.884Z,4.37
2022-11-29T02:59:01.359Z,4.13
2022-11-29T03:01:31.301Z,3.73
2022-11-29T03:04:13.476Z,3.93
2022-11-29T03:06:58.516Z,3.83
2022-11-29T03:09:49.576Z,3.50
2022-11-29T03:12:26.275Z,4.00
2022-11-29T03:14:57.349Z,4.37
2022-11-29T03:17:30.764Z,3.57
2022-11-29T03:20:06.276Z,2.90
2022-11-29T03:22:43.841Z,4.93
2022-11-29T03:25:23.028Z,3.70
2022-11-29T03:28:12.780Z,3.60
2022-11-29T03:30:41.592Z,3.90
2022-11-29T03:33:08.116Z,3.43
2022-11-29T03:35:37.415Z,3.60
2022-11-29T03:38:19.198Z,3.40
2022-11-29T03:40:50.363Z,3.00
2022-11-29T03:43:36.149Z,3.10
2022-11-29T03:46:11.414Z,3.23
2022-11-29T03:48:41.171Z,2.70
2022-11-29T03:51:13.838Z,3.00
2022-11-29T03:53:52.563Z,2.80
2022-11-29T03:56:28.346Z,2.60
2022-11-29T03:59:03.310Z,2.93
2022-11-29T04:01:48.659Z,2.40
2022-11-29T04:04:15.290Z,2.63
2022-11-29T04:07:00.251Z,3.13
2022-11-29T04:09:30.084Z,3.27
2022-11-29T04:12:05.526Z,2.30
2022-11-29T04:14:55.309Z,2.60
2022-11-29T04:17:24.800Z,3.17
2022-11-29T04:20:03.827Z,2.50
2022-11-29T04:22:59.375Z,3.50
2022-11-29T04:25:26.070Z,2.30
2022-11-29T04:28:00.725Z,2.43
2022-11-29T04:30:28.262Z,2.60
2022-11-29T04:33:00.490Z,2.20
2022-11-29T04:35:43.234Z,2.20
2022-11-29T04:38:18.784Z,2.22
2022-11-29T04:40:51.519Z,2.63
2022-11-29T04:43:26.937Z,2.20
2022-11-29T04:46:05.782Z,2.40
2022-11-29T04:48:50.767Z,2.30
2022-11-29T04:51:29.521Z,2.97
2022-11-29T04:54:09.257Z,1.70
2022-11-29T04:56:35.969Z,2.87
2022-11-29T04:59:06.125Z,1.90
2022-11-29T05:01:47.907Z,1.80
2022-11-29T05:04:21.037Z,2.23
2022-11-29T05:06:47.503Z,2.50
2022-11-29T05:09:14.225Z,2.10
2022-11-29T05:12:03.428Z,2.20
2022-11-29T05:14:41.774Z,3.10
2022-11-29T05:17:08.367Z,2.57
2022-11-29T05:19:34.795Z,2.00
2022-11-29T05:22:07.747Z,1.87
2022-11-29T05:27:10.072Z,2.20
2022-11-29T05:29:51.620Z,2.40
2022-11-29T05:32:24.472Z,2.70
2022-11-29T05:35:09.233Z,2.53
2022-11-29T05:37:45.326Z,2.23
2022-11-29T05:40:22.832Z,2.17
2022-11-29T05:43:21.977Z,1.83
2022-11-29T05:45:54.398Z,2.17
2022-11-29T05:48:30.082Z,3.40
2022-11-29T05:50:59.804Z,1.70
2022-11-29T05:53:44.557Z,2.20
2022-11-29T05:56:30.050Z,1.73
2022-11-29T05:59:05.689Z,1.97
2022-11-29T06:01:40.254Z,2.10
2022-11-29T06:04:14.612Z,1.70
2022-11-29T06:07:00.360Z,2.47
2022-11-29T06:09:27.032Z,2.87
2022-11-29T06:12:05.540Z,2.73
2022-11-29T06:14:35.102Z,2.03
2022-11-29T06:17:04.402Z,2.10
2022-11-29T06:19:30.931Z,2.80
2022-11-29T06:22:05.918Z,2.23
2022-11-29T06:24:34.552Z,2.80
2022-11-29T06:27:03.889Z,2.97
2022-11-29T06:29:42.709Z,2.10
2022-11-29T06:32:40.302Z,2.93
2022-11-29T06:35:10.816Z,3.33
2022-11-29T06:37:42.859Z,2.80
2022-11-29T06:40:14.409Z,2.97
2022-11-29T06:42:40.919Z,3.87
2022-11-29T06:45:07.888Z,3.33
2022-11-29T06:47:49.202Z,3.10
2022-11-29T06:50:38.467Z,3.37
2022-11-29T06:53:08.264Z,3.33
2022-11-29T06:55:34.848Z,3.90
2022-11-29T06:58:05.275Z,3.50
2022-11-29T07:00:39.740Z,2.97
2022-11-29T07:03:17.986Z,3.13
2022-11-29T07:05:44.881Z,3.83
2022-11-29T07:08:15.927Z,4.10
2022-11-29T07:10:43.037Z,3.87
2022-11-29T07:13:13.913Z,3.30
2022-11-29T07:16:18.918Z,3.40
2022-11-29T07:19:08.616Z,3.57
2022-11-29T07:21:48.525Z,3.57
2022-11-29T07:24:41.518Z,4.00
2022-11-29T07:27:16.816Z,3.33
2022-11-29T07:29:51.363Z,3.70
2022-11-29T07:32:38.727Z,3.33
2022-11-29T07:35:08.323Z,3.87
2022-11-29T07:37:34.959Z,3.77
2022-11-29T07:40:11.018Z,3.30
2022-11-29T07:42:37.570Z,3.27
2022-11-29T07:45:24.179Z,3.10
2022-11-29T07:51:54.430Z,3.00
2022-11-29T07:55:00.882Z,3.53
2022-11-29T07:58:07.261Z,3.33
2022-11-29T08:03:57.607Z,5.65
2022-11-29T08:07:04.012Z,4.10
2022-11-29T08:10:10.741Z,4.27
2022-11-29T08:12:41.751Z,3.47
2022-11-29T08:15:08.754Z,4.00
2022-11-29T08:17:36.674Z,3.83
2022-11-29T08:20:04.401Z,3.53
2022-11-29T08:22:31.136Z,4.87
2022-11-29T08:24:58.610Z,4.00
2022-11-29T08:27:25.370Z,4.00
2022-11-29T08:29:51.941Z,3.60
2022-11-29T08:32:18.513Z,3.60
2022-11-29T08:34:45.484Z,5.50
2022-11-29T08:37:12.228Z,3.83
2022-11-29T08:39:38.741Z,4.30
2022-11-29T08:42:05.450Z,3.90
2022-11-29T08:44:31.925Z,3.70
2022-11-29T08:47:17.223Z,4.33
2022-11-29T08:50:02.245Z,3.60
2022-11-29T08:52:51.850Z,2.73
2022-11-29T08:55:20.142Z,3.23
2022-11-29T08:57:47.373Z,3.27
2022-11-29T09:00:14.509Z,3.30
2022-11-29T09:02:41.251Z,2.73
2022-11-29T09:05:08.289Z,3.30
2022-11-29T09:07:35.063Z,3.30
2022-11-29T09:10:05.469Z,3.13
2022-11-29T09:12:32.806Z,3.40
2022-11-29T09:14:59.493Z,3.23
2022-11-29T09:17:26.170Z,4.33
2022-11-29T09:19:52.934Z,3.83
2022-11-29T09:22:19.651Z,7.73
2022-11-29T09:24:47.260Z,8.07
2022-11-29T09:27:14.002Z,5.73
2022-11-29T09:29:40.552Z,3.90
2022-11-29T09:32:07.278Z,3.80
2022-11-29T09:34:33.887Z,3.93
2022-11-29T09:37:00.572Z,3.47
2022-11-29T09:39:27.265Z,4.03
2022-11-29T09:42:14.764Z,4.70
2022-11-29T09:44:44.801Z,5.13
2022-11-29T09:47:11.504Z,5.93
2022-11-29T09:49:47.329Z,5.40
2022-11-29T09:52:20.907Z,5.37
2022-11-29T09:55:06.154Z,5.27
2022-11-29T09:57:32.872Z,3.63
2022-11-29T10:00:03.384Z,3.67
2022-11-29T10:03:22.113Z,3.40
2022-11-29T10:05:51.311Z,3.03
2022-11-29T10:08:38.165Z,3.57
2022-11-29T10:11:23.420Z,3.57
2022-11-29T10:13:55.504Z,4.30
2022-11-29T10:16:25.175Z,3.60
2022-11-29T10:18:56.080Z,3.80
2022-11-29T10:21:24.932Z,3.43
2022-11-29T10:23:54.140Z,3.83
2022-11-29T10:26:21.081Z,3.17
2022-11-29T10:28:49.452Z,3.03
2022-11-29T10:31:18.970Z,3.13
2022-11-29T10:33:46.021Z,3.13
2022-11-29T10:36:28.378Z,3.00
2022-11-29T10:38:59.488Z,3.13
2022-11-29T10:41:26.937Z,2.87
2022-11-29T10:43:55.900Z,2.80
2022-11-29T10:46:28.390Z,2.97
2022-11-29T10:48:55.264Z,3.47
2022-11-29T10:51:22.035Z,3.17
2022-11-29T10:53:49.566Z,2.80
2022-11-29T10:56:23.205Z,3.30
2022-11-29T10:59:05.643Z,3.67
2022-11-29T11:01:33.886Z,3.53
2022-11-29T11:04:04.470Z,2.90
2022-11-29T11:06:46.468Z,3.93
2022-11-29T11:09:13.179Z,5.13
2022-11-29T11:11:40.602Z,4.40
2022-11-29T11:14:22.049Z,4.27
2022-11-29T11:16:48.736Z,4.43
2022-11-29T11:19:29.667Z,3.93
2022-11-29T11:21:57.057Z,3.93
2022-11-29T11:24:31.366Z,3.97
2022-11-29T11:26:58.228Z,3.53
2022-11-29T11:29:25.943Z,4.07
2022-11-29T11:31:55.165Z,3.73
2022-11-29T11:34:38.044Z,3.27
2022-11-29T11:37:23.408Z,3.17
2022-11-29T11:39:51.694Z,3.67
2022-11-29T11:42:37.025Z,3.67
2022-11-29T11:45:10.176Z,3.17
2022-11-29T11:47:41.381Z,3.17
2022-11-29T11:50:25.055Z,4.07
2022-11-29T11:52:53.560Z,5.13
2022-11-29T11:55:26.249Z,4.30
2022-11-29T11:58:02.241Z,3.88
2022-11-29T12:01:06.665Z,4.47
2022-11-29T12:03:37.482Z,4.17
2022-11-29T12:06:06.909Z,3.63
2022-11-29T12:08:34.598Z,3.83
2022-11-29T12:11:07.296Z,3.80
2022-11-29T12:16:04.071Z,3.67
2022-11-29T12:18:33.609Z,3.63
2022-11-29T12:21:18.021Z,4.20
2022-11-29T12:23:57.615Z,2.43
2022-11-29T12:26:56.003Z,2.90
2022-11-29T12:29:14.197Z,2.23
2022-11-29T12:31:41.027Z,2.60
2022-11-29T12:34:07.483Z,2.20
2022-11-29T12:36:33.915Z,4.27
2022-11-29T12:39:03.901Z,3.03
2022-11-29T12:42:08.767Z,2.20
2022-11-29T12:44:53.982Z,2.90
2022-11-29T12:47:38.592Z,2.27
2022-11-29T12:50:08.180Z,2.77
2022-11-29T12:52:34.851Z,2.10
2022-11-29T12:55:07.309Z,2.00
2022-11-29T12:57:44.964Z,2.15
2022-11-29T13:00:19.056Z,1.23
2022-11-29T13:02:50.172Z,1.60
2022-11-29T13:05:20.353Z,0.97
2022-11-29T13:07:47.034Z,1.60
2022-11-29T13:10:25.143Z,1.23
2022-11-29T13:12:53.897Z,0.90
2022-11-29T13:15:23.135Z,0.80
2022-11-29T13:17:52.925Z,1.00
2022-11-29T13:20:29.974Z,1.13
2022-11-29T13:23:02.778Z,1.00
2022-11-29T13:25:43.085Z,1.65
2022-11-29T13:28:22.965Z,0.70
2022-11-29T13:30:50.146Z,0.80
2022-11-29T13:33:19.488Z,0.80
2022-11-29T13:35:53.172Z,0.90
2022-11-29T13:38:25.397Z,0.97
2022-11-29T13:40:51.870Z,1.15
2022-11-29T13:43:23.169Z,1.03
2022-11-29T13:46:04.253Z,0.90
2022-11-29T13:48:48.066Z,1.43
2022-11-29T13:51:25.384Z,0.90
2022-11-29T13:53:52.790Z,0.80
2022-11-29T13:56:47.920Z,0.67
2022-11-29T13:59:27.989Z,0.80
2022-11-29T14:01:54.729Z,0.70
2022-11-29T14:04:21.663Z,0.87
2022-11-29T14:06:49.805Z,0.90
2022-11-29T14:09:34.864Z,0.90
2022-11-29T14:12:01.684Z,0.67
2022-11-29T14:14:31.354Z,0.80
2022-11-29T14:17:02.370Z,0.70
2022-11-29T14:19:34.050Z,0.90
2022-11-29T14:22:06.629Z,1.00
2022-11-29T14:24:35.922Z,1.10
2022-11-29T14:27:24.737Z,0.93
2022-11-29T14:29:58.073Z,1.00
2022-11-29T14:32:29.487Z,0.90
2022-11-29T14:35:13.695Z,1.10
2022-11-29T14:37:59.069Z,0.90
2022-11-29T14:43:24.404Z,1.07
2022-11-29T14:46:36.410Z,1.30
2022-11-29T14:49:04.043Z,1.00
2022-11-29T14:51:31.670Z,1.60
2022-11-29T14:54:15.787Z,1.17
2022-11-29T14:56:44.608Z,1.03
2022-11-29T14:59:30.200Z,1.80
2022-11-29T15:01:58.727Z,1.50
2022-11-29T15:04:25.846Z,1.40
2022-11-29T15:07:06.870Z,1.40
2022-11-29T15:12:17.876Z,1.90
2022-11-29T15:14:47.615Z,1.50
2022-11-29T15:17:23.696Z,1.10
2022-11-29T15:19:59.454Z,1.37
2022-11-29T15:22:33.744Z,1.40
2022-11-29T15:25:02.535Z,1.50
2022-11-29T15:27:29.156Z,2.67
2022-11-29T15:29:55.944Z,1.40
2022-11-29T15:32:24.870Z,1.30
2022-11-29T15:35:00.679Z,1.40
2022-11-29T15:37:38.441Z,1.30
2022-11-29T15:40:11.841Z,2.03
2022-11-29T15:42:40.010Z,2.40
2022-11-29T15:45:22.865Z,2.33
2022-11-29T15:47:49.464Z,3.30
2022-11-29T15:50:26.485Z,1.87
2022-11-29T15:52:55.884Z,3.20
2022-11-29T15:55:22.551Z,2.60
2022-11-29T15:57:51.691Z,3.37
2022-11-29T16:00:27.500Z,2.40
2022-11-29T16:02:57.191Z,3.40
2022-11-29T16:05:25.551Z,4.57
2022-11-29T16:07:55.148Z,3.10
2022-11-29T16:10:36.493Z,3.77
2022-11-29T16:13:07.866Z,2.80
2022-11-29T16:15:39.508Z,3.43
2022-11-29T16:18:11.265Z,3.00
2022-11-29T16:20:38.545Z,2.80
2022-11-29T16:23:15.153Z,2.60
2022-11-29T16:26:00.362Z,3.17
2022-11-29T16:28:29.412Z,3.90
2022-11-29T16:30:56.525Z,4.10
2022-11-29T16:33:24.105Z,3.87
2022-11-29T16:35:51.757Z,3.73
2022-11-29T16:38:19.953Z,7.57
2022-11-29T16:41:10.312Z,9.43
2022-11-29T16:43:56.830Z,10.43
2022-11-29T16:46:27.213Z,7.13
2022-11-29T16:48:54.679Z,8.07
2022-11-29T16:51:23.567Z,8.83
2022-11-29T16:53:53.245Z,10.57
2022-11-29T16:56:24.222Z,10.57
2022-11-29T16:59:25.893Z,9.33
2022-11-29T17:01:40.401Z,12.40
2022-11-29T17:04:08.869Z,10.10
2022-11-29T17:06:35.453Z,8.80
2022-11-29T17:09:02.017Z,8.37
2022-11-29T17:11:28.630Z,7.53
2022-11-29T17:13:55.127Z,8.10
2022-11-29T17:16:22.866Z,9.33
2022-11-29T17:18:49.918Z,22.53
2022-11-29T17:21:17.966Z,55.00
2022-11-29T17:23:45.306Z,54.20
2022-11-29T17:26:12.140Z,115.83
2022-11-29T17:28:40.263Z,52.50
2022-11-29T17:31:10.700Z,61.27
2022-11-29T17:33:37.192Z,63.20
2022-11-29T17:36:07.563Z,62.67
2022-11-29T17:38:34.391Z,49.53
2022-11-29T17:41:05.980Z,42.80
2022-11-29T17:43:33.536Z,40.37
2022-11-29T17:46:00.800Z,41.10
2022-11-29T17:48:33.403Z,40.50
2022-11-29T17:51:00.471Z,38.65
2022-11-29T17:53:27.089Z,39.30
2022-11-29T17:55:53.589Z,38.00
2022-11-29T17:58:20.191Z,38.40
2022-11-29T18:00:46.991Z,45.03
2022-11-29T18:03:13.566Z,42.30
2022-11-29T18:05:40.010Z,44.77
2022-11-29T18:08:06.751Z,38.33
2022-11-29T18:10:33.383Z,37.63
2022-11-29T18:12:59.875Z,36.60
2022-11-29T18:15:26.455Z,35.57
2022-11-29T18:17:53.089Z,32.10
2022-11-29T18:20:19.568Z,29.20
2022-11-29T18:22:46.779Z,29.07
2022-11-29T18:25:37.676Z,39.10
2022-11-29T18:28:00.155Z,30.83
2022-11-29T18:30:26.800Z,28.67
2022-11-29T18:32:56.614Z,32.67
2022-11-29T18:35:23.315Z,33.07
2022-11-29T18:38:13.945Z,37.43
2022-11-29T18:40:40.129Z,37.80
2022-11-29T18:43:06.811Z,37.47
2022-11-29T18:45:36.736Z,41.20
2022-11-29T18:48:03.680Z,35.77
2022-11-29T18:50:31.525Z,36.23
2022-11-29T18:52:59.131Z,41.97
2022-11-29T18:55:26.271Z,44.10
2022-11-29T18:57:55.823Z,35.10
2022-11-29T19:00:22.382Z,35.57
2022-11-29T19:02:49.230Z,36.73
2022-11-29T19:05:15.964Z,37.93
2022-11-29T19:07:42.567Z,52.20
2022-11-29T19:10:09.431Z,48.23
2022-11-29T19:12:36.183Z,39.20
2022-11-29T19:15:02.723Z,35.63
2022-11-29T19:17:29.865Z,31.03
2022-11-29T19:19:56.646Z,30.50
2022-11-29T19:22:23.099Z,29.47
2022-11-29T19:24:50.028Z,31.00
2022-11-29T19:27:16.700Z,30.60
2022-11-29T19:29:43.173Z,30.47
2022-11-29T19:32:10.131Z,32.93
2022-11-29T19:34:36.782Z,32.87
2022-11-29T19:37:03.455Z,34.27
2022-11-29T19:39:30.143Z,35.67
2022-11-29T19:41:56.717Z,51.20
2022-11-29T19:44:29.169Z,81.90
2022-11-29T19:46:56.762Z,81.10
2022-11-29T19:49:23.387Z,79.10
2022-11-29T19:51:49.939Z,71.97
2022-11-29T19:54:16.639Z,57.73
2022-11-29T19:56:43.310Z,54.10
2022-11-29T19:59:09.972Z,50.67
2022-11-29T20:01:41.338Z,47.23
2022-11-29T20:07:47.083Z,48.30
2022-11-29T20:10:13.851Z,45.20
2022-11-29T20:12:40.320Z,42.27
2022-11-29T20:15:07.341Z,39.67
2022-11-29T20:17:33.905Z,41.30
2022-11-29T20:20:00.519Z,37.20
2022-11-29T20:22:27.303Z,36.73
2022-11-29T20:24:54.772Z,36.07
2022-11-29T20:27:21.318Z,33.30
2022-11-29T20:29:48.650Z,32.53
2022-11-29T20:32:15.492Z,33.67
2022-11-29T20:34:42.251Z,34.57
2022-11-29T20:37:12.193Z,35.03
2022-11-29T20:39:53.862Z,36.33
2022-11-29T20:42:22.912Z,34.47
2022-11-29T20:44:49.392Z,32.57
2022-11-29T20:47:22.382Z,34.70
2022-11-29T20:52:48.639Z,31.20
2022-11-29T20:55:15.467Z,29.17
2022-11-29T20:57:42.151Z,26.10
2022-11-29T21:00:11.434Z,28.97
2022-11-29T21:02:38.777Z,30.50
2022-11-29T21:05:05.812Z,31.23
2022-11-29T21:07:32.405Z,30.17
2022-11-29T21:10:01.366Z,28.83
2022-11-29T21:12:29.077Z,27.57
2022-11-29T21:14:55.715Z,26.23
2022-11-29T21:17:22.909Z,24.90
2022-11-29T21:19:49.551Z,24.50
2022-11-29T21:22:21.769Z,27.27
2022-11-29T21:24:57.587Z,39.05
2022-11-29T21:27:29.246Z,33.27
2022-11-29T21:29:58.328Z,32.07
2022-11-29T21:32:26.060Z,30.30
2022-11-29T21:34:52.659Z,33.37
2022-11-29T21:37:20.266Z,32.47
2022-11-29T21:39:49.372Z,33.43
2022-11-29T21:42:15.906Z,32.90
2022-11-29T21:44:42.375Z,33.33
2022-11-29T21:47:09.125Z,33.47
2022-11-29T21:49:35.700Z,33.53
2022-11-29T21:52:02.265Z,31.20
2022-11-29T21:54:29.663Z,28.90
2022-11-29T21:56:56.223Z,29.90
2022-11-29T22:00:02.697Z,29.93
2022-11-29T22:03:09.093Z,28.20
2022-11-29T22:06:15.650Z,27.17
2022-11-29T22:09:22.016Z,27.83
2022-11-29T22:12:34.103Z,28.47
2022-11-29T22:15:41.420Z,26.53
2022-11-29T22:18:47.971Z,26.93
2022-11-29T22:21:14.575Z,25.47
2022-11-29T22:23:42.249Z,25.10
2022-11-29T22:26:09.196Z,23.80
2022-11-29T22:28:36.118Z,23.40
2022-11-29T22:31:07.042Z,22.63
2022-11-29T22:33:33.772Z,23.50
2022-11-29T22:36:18.589Z,22.17
2022-11-29T22:38:46.624Z,23.27
2022-11-29T22:41:13.885Z,23.50
2022-11-29T22:43:41.120Z,21.87
2022-11-29T22:46:08.953Z,21.97
2022-11-29T22:48:38.933Z,23.00
2022-11-29T22:51:07.056Z,22.97
2022-11-29T22:53:34.314Z,23.83
2022-11-29T22:56:01.494Z,21.70
2022-11-29T22:58:28.433Z,21.17
2022-11-29T23:01:15.296Z,21.77
2022-11-29T23:03:45.923Z,21.90
2022-11-29T23:06:13.669Z,20.73
2022-11-29T23:08:41.365Z,21.10
2022-11-29T23:11:09.368Z,20.90
2022-11-29T23:13:37.258Z,21.40
2022-11-29T23:16:05.032Z,20.57
2022-11-29T23:18:31.754Z,20.80
2022-11-29T23:21:05.301Z,22.90
2022-11-29T23:23:32.064Z,21.73
2022-11-29T23:25:59.028Z,21.40
2022-11-29T23:28:25.697Z,22.23
2022-11-29T23:30:54.630Z,20.70
2022-11-29T23:33:24.243Z,21.57
2022-11-29T23:35:51.097Z,20.73
2022-11-29T23:38:18.066Z,21.73
2022-11-29T23:40:46.931Z,22.27
2022-11-29T23:43:13.439Z,22.73
2022-11-29T23:45:40.200Z,21.50
2022-11-29T23:48:06.883Z,21.60
2022-11-29T23:50:33.734Z,22.23
2022-11-29T23:53:00.512Z,20.90
2022-11-29T23:55:27.045Z,18.93
2022-11-29T23:57:53.512Z,19.23
